sensor_id;sensor_type;location;lat;lon;timestamp;pressure;altitude;pressure_sealevel;temperature;humidity
23166;BME280;11751;42.700;24.170;2023-07-20T00:01:10;93612.78;;;21.64;nan
23166;BME280;11751;42.700;24.170;2023-07-20T00:03:35;93618.75;;;21.70;nan
23166;BME280;11751;42.700;24.170;2023-07-20T00:06:01;93624.34;;;21.52;nan
23166;BME280;11751;42.700;24.170;2023-07-20T00:08:26;93640.69;;;21.52;nan
23166;BME280;11751;42.700;24.170;2023-07-20T00:10:52;93642.75;;;21.65;nan
23166;BME280;11751;42.700;24.170;2023-07-20T00:13:17;93658.88;;;21.45;nan
23166;BME280;11751;42.700;24.170;2023-07-20T00:15:44;93675.63;;;21.24;nan
23166;BME280;11751;42.700;24.170;2023-07-20T00:18:09;93683.13;;;21.46;nan
23166;BME280;11751;42.700;24.170;2023-07-20T00:20:35;93685.28;;;21.32;nan
23166;BME280;11751;42.700;24.170;2023-07-20T00:23:00;93674.69;;;21.48;nan
23166;BME280;11751;42.700;24.170;2023-07-20T00:25:26;93667.09;;;21.39;nan
23166;BME280;11751;42.700;24.170;2023-07-20T00:27:51;93687.03;;;21.39;nan
23166;BME280;11751;42.700;24.170;2023-07-20T00:30:18;93673.00;;;21.43;nan
23166;BME280;11751;42.700;24.170;2023-07-20T00:32:44;93678.22;;;21.62;nan
23166;BME280;11751;42.700;24.170;2023-07-20T00:35:09;93664.47;;;21.72;nan
23166;BME280;11751;42.700;24.170;2023-07-20T00:37:36;93666.66;;;21.73;nan
23166;BME280;11751;42.700;24.170;2023-07-20T00:40:01;93671.63;;;21.73;nan
23166;BME280;11751;42.700;24.170;2023-07-20T00:42:30;93669.28;;;21.54;nan
23166;BME280;11751;42.700;24.170;2023-07-20T00:44:56;93674.59;;;21.17;nan
23166;BME280;11751;42.700;24.170;2023-07-20T00:47:21;93673.56;;;21.40;nan
23166;BME280;11751;42.700;24.170;2023-07-20T00:49:47;93655.91;;;21.43;nan
23166;BME280;11751;42.700;24.170;2023-07-20T00:52:13;93669.00;;;21.48;nan
23166;BME280;11751;42.700;24.170;2023-07-20T00:54:41;93655.72;;;21.39;nan
23166;BME280;11751;42.700;24.170;2023-07-20T00:57:07;93672.34;;;21.16;nan
23166;BME280;11751;42.700;24.170;2023-07-20T00:59:36;93669.94;;;21.10;nan
23166;BME280;11751;42.700;24.170;2023-07-20T01:02:02;93668.13;;;21.17;nan
23166;BME280;11751;42.700;24.170;2023-07-20T01:04:28;93677.94;;;21.27;nan
23166;BME280;11751;42.700;24.170;2023-07-20T01:07:17;93671.63;;;21.15;nan
23166;BME280;11751;42.700;24.170;2023-07-20T01:09:54;93662.41;;;20.88;nan
23166;BME280;11751;42.700;24.170;2023-07-20T01:12:26;93673.06;;;20.74;nan
23166;BME280;11751;42.700;24.170;2023-07-20T01:14:53;93663.88;;;20.75;nan
23166;BME280;11751;42.700;24.170;2023-07-20T01:17:19;93651.78;;;20.75;nan
23166;BME280;11751;42.700;24.170;2023-07-20T01:19:44;93652.75;;;20.79;nan
23166;BME280;11751;42.700;24.170;2023-07-20T01:33:25;93656.00;;;20.34;nan
23166;BME280;11751;42.700;24.170;2023-07-20T01:35:58;93656.75;;;20.48;nan
23166;BME280;11751;42.700;24.170;2023-07-20T01:38:25;93657.81;;;20.41;nan
23166;BME280;11751;42.700;24.170;2023-07-20T01:40:51;93658.53;;;20.41;nan
23166;BME280;11751;42.700;24.170;2023-07-20T01:43:17;93643.59;;;20.41;nan
23166;BME280;11751;42.700;24.170;2023-07-20T01:45:43;93657.69;;;20.52;nan
23166;BME280;11751;42.700;24.170;2023-07-20T01:48:09;93654.88;;;20.39;nan
23166;BME280;11751;42.700;24.170;2023-07-20T01:50:34;93655.69;;;20.28;nan
23166;BME280;11751;42.700;24.170;2023-07-20T01:53:00;93655.31;;;19.95;nan
23166;BME280;11751;42.700;24.170;2023-07-20T01:55:26;93661.81;;;20.09;nan
23166;BME280;11751;42.700;24.170;2023-07-20T01:57:52;93665.38;;;20.23;nan
23166;BME280;11751;42.700;24.170;2023-07-20T02:00:17;93672.34;;;20.20;nan
23166;BME280;11751;42.700;24.170;2023-07-20T02:02:46;93665.28;;;20.34;nan
23166;BME280;11751;42.700;24.170;2023-07-20T02:05:12;93666.03;;;20.35;nan
23166;BME280;11751;42.700;24.170;2023-07-20T02:07:37;93661.91;;;20.38;nan
23166;BME280;11751;42.700;24.170;2023-07-20T02:10:03;93658.53;;;20.28;nan
23166;BME280;11751;42.700;24.170;2023-07-20T02:12:28;93665.38;;;20.23;nan
23166;BME280;11751;42.700;24.170;2023-07-20T02:14:53;93670.34;;;20.22;nan
23166;BME280;11751;42.700;24.170;2023-07-20T02:17:19;93662.34;;;20.19;nan
23166;BME280;11751;42.700;24.170;2023-07-20T02:19:44;93676.88;;;20.25;nan
23166;BME280;11751;42.700;24.170;2023-07-20T02:22:10;93675.28;;;20.22;nan
23166;BME280;11751;42.700;24.170;2023-07-20T02:24:36;93672.75;;;20.28;nan
23166;BME280;11751;42.700;24.170;2023-07-20T02:27:01;93670.34;;;20.22;nan
23166;BME280;11751;42.700;24.170;2023-07-20T02:29:26;93663.91;;;20.22;nan
23166;BME280;11751;42.700;24.170;2023-07-20T02:31:52;93673.81;;;20.21;nan
23166;BME280;11751;42.700;24.170;2023-07-20T02:34:17;93674.66;;;20.10;nan
23166;BME280;11751;42.700;24.170;2023-07-20T02:36:43;93677.81;;;20.16;nan
23166;BME280;11751;42.700;24.170;2023-07-20T02:39:09;93670.22;;;20.07;nan
23166;BME280;11751;42.700;24.170;2023-07-20T02:41:34;93668.56;;;19.77;nan
23166;BME280;11751;42.700;24.170;2023-07-20T02:44:00;93667.91;;;19.78;nan
23166;BME280;11751;42.700;24.170;2023-07-20T02:46:27;93677.59;;;19.74;nan
23166;BME280;11751;42.700;24.170;2023-07-20T02:48:55;93666.53;;;19.66;nan
23166;BME280;11751;42.700;24.170;2023-07-20T02:51:20;93672.50;;;19.59;nan
23166;BME280;11751;42.700;24.170;2023-07-20T02:53:46;93664.16;;;19.49;nan
23166;BME280;11751;42.700;24.170;2023-07-20T02:56:11;93671.94;;;19.49;nan
23166;BME280;11751;42.700;24.170;2023-07-20T02:58:41;93668.59;;;19.52;nan
23166;BME280;11751;42.700;24.170;2023-07-20T03:01:08;93658.50;;;19.49;nan
23166;BME280;11751;42.700;24.170;2023-07-20T03:03:36;93657.13;;;19.50;nan
23166;BME280;11751;42.700;24.170;2023-07-20T03:06:04;93664.59;;;19.57;nan
23166;BME280;11751;42.700;24.170;2023-07-20T03:08:30;93660.53;;;19.60;nan
23166;BME280;11751;42.700;24.170;2023-07-20T03:10:55;93660.28;;;19.56;nan
23166;BME280;11751;42.700;24.170;2023-07-20T03:13:21;93660.84;;;19.66;nan
23166;BME280;11751;42.700;24.170;2023-07-20T03:15:46;93668.19;;;19.58;nan
23166;BME280;11751;42.700;24.170;2023-07-20T03:18:11;93661.88;;;19.34;nan
23166;BME280;11751;42.700;24.170;2023-07-20T03:20:38;93673.25;;;19.34;nan
23166;BME280;11751;42.700;24.170;2023-07-20T03:23:04;93671.50;;;19.16;nan
23166;BME280;11751;42.700;24.170;2023-07-20T03:25:29;93672.59;;;19.22;nan
23166;BME280;11751;42.700;24.170;2023-07-20T03:27:55;93672.78;;;19.01;nan
23166;BME280;11751;42.700;24.170;2023-07-20T03:30:20;93674.13;;;19.00;nan
23166;BME280;11751;42.700;24.170;2023-07-20T03:32:45;93675.81;;;19.05;nan
23166;BME280;11751;42.700;24.170;2023-07-20T03:35:11;93675.47;;;18.99;nan
23166;BME280;11751;42.700;24.170;2023-07-20T03:37:36;93685.59;;;19.02;nan
23166;BME280;11751;42.700;24.170;2023-07-20T03:40:03;93672.97;;;19.05;nan
23166;BME280;11751;42.700;24.170;2023-07-20T03:42:30;93684.09;;;19.13;nan
23166;BME280;11751;42.700;24.170;2023-07-20T03:44:55;93677.50;;;19.22;nan
23166;BME280;11751;42.700;24.170;2023-07-20T03:47:21;93676.09;;;19.34;nan
23166;BME280;11751;42.700;24.170;2023-07-20T03:49:46;93675.94;;;19.44;nan
23166;BME280;11751;42.700;24.170;2023-07-20T03:52:12;93674.72;;;19.35;nan
23166;BME280;11751;42.700;24.170;2023-07-20T03:54:37;93664.22;;;19.76;nan
23166;BME280;11751;42.700;24.170;2023-07-20T03:57:03;93671.41;;;20.29;nan
23166;BME280;11751;42.700;24.170;2023-07-20T03:59:28;93670.66;;;20.68;nan
23166;BME280;11751;42.700;24.170;2023-07-20T04:01:54;93663.47;;;20.94;nan
23166;BME280;11751;42.700;24.170;2023-07-20T04:04:19;93667.03;;;21.08;nan
23166;BME280;11751;42.700;24.170;2023-07-20T04:06:45;93662.38;;;21.01;nan
23166;BME280;11751;42.700;24.170;2023-07-20T04:09:11;93657.78;;;20.67;nan
23166;BME280;11751;42.700;24.170;2023-07-20T04:11:37;93650.69;;;20.95;nan
23166;BME280;11751;42.700;24.170;2023-07-20T04:14:03;93660.31;;;21.59;nan
23166;BME280;11751;42.700;24.170;2023-07-20T04:16:29;93658.75;;;21.72;nan
23166;BME280;11751;42.700;24.170;2023-07-20T04:18:55;93661.16;;;21.77;nan
23166;BME280;11751;42.700;24.170;2023-07-20T04:21:22;93667.78;;;21.82;nan
23166;BME280;11751;42.700;24.170;2023-07-20T04:23:47;93670.38;;;21.91;nan
23166;BME280;11751;42.700;24.170;2023-07-20T04:26:13;93666.50;;;21.85;nan
23166;BME280;11751;42.700;24.170;2023-07-20T04:28:40;93671.94;;;22.10;nan
23166;BME280;11751;42.700;24.170;2023-07-20T04:31:14;93665.78;;;22.31;nan
23166;BME280;11751;42.700;24.170;2023-07-20T04:33:40;93660.78;;;22.62;nan
23166;BME280;11751;42.700;24.170;2023-07-20T04:36:06;93668.00;;;22.47;nan
23166;BME280;11751;42.700;24.170;2023-07-20T04:38:32;93665.69;;;22.59;nan
23166;BME280;11751;42.700;24.170;2023-07-20T04:40:58;93665.53;;;22.88;nan
23166;BME280;11751;42.700;24.170;2023-07-20T04:43:23;93663.09;;;22.98;nan
23166;BME280;11751;42.700;24.170;2023-07-20T04:45:49;93662.34;;;23.13;nan
23166;BME280;11751;42.700;24.170;2023-07-20T04:48:16;93667.69;;;23.55;nan
23166;BME280;11751;42.700;24.170;2023-07-20T04:50:43;93669.38;;;23.45;nan
23166;BME280;11751;42.700;24.170;2023-07-20T04:53:13;93661.00;;;23.66;nan
23166;BME280;11751;42.700;24.170;2023-07-20T04:55:40;93663.59;;;23.95;nan
23166;BME280;11751;42.700;24.170;2023-07-20T04:58:06;93670.56;;;24.27;nan
23166;BME280;11751;42.700;24.170;2023-07-20T05:00:37;93661.78;;;24.40;nan
23166;BME280;11751;42.700;24.170;2023-07-20T05:03:03;93653.25;;;24.23;nan
23166;BME280;11751;42.700;24.170;2023-07-20T05:05:30;93653.72;;;24.54;nan
23166;BME280;11751;42.700;24.170;2023-07-20T05:07:56;93651.09;;;24.60;nan
23166;BME280;11751;42.700;24.170;2023-07-20T05:10:21;93648.84;;;24.39;nan
23166;BME280;11751;42.700;24.170;2023-07-20T05:12:46;93644.34;;;24.71;nan
23166;BME280;11751;42.700;24.170;2023-07-20T05:15:12;93643.25;;;25.21;nan
23166;BME280;11751;42.700;24.170;2023-07-20T05:17:37;93655.28;;;25.37;nan
23166;BME280;11751;42.700;24.170;2023-07-20T05:20:04;93650.53;;;25.67;nan
23166;BME280;11751;42.700;24.170;2023-07-20T05:22:30;93638.44;;;25.92;nan
23166;BME280;11751;42.700;24.170;2023-07-20T05:24:55;93639.81;;;26.35;nan
23166;BME280;11751;42.700;24.170;2023-07-20T05:27:21;93638.72;;;26.46;nan
23166;BME280;11751;42.700;24.170;2023-07-20T05:29:46;93638.78;;;26.74;nan
23166;BME280;11751;42.700;24.170;2023-07-20T05:32:14;93638.47;;;27.12;nan
23166;BME280;11751;42.700;24.170;2023-07-20T05:34:40;93621.53;;;27.24;nan
23166;BME280;11751;42.700;24.170;2023-07-20T05:37:11;93619.44;;;27.54;nan
23166;BME280;11751;42.700;24.170;2023-07-20T05:39:37;93621.63;;;27.56;nan
23166;BME280;11751;42.700;24.170;2023-07-20T05:42:03;93625.38;;;27.89;nan
23166;BME280;11751;42.700;24.170;2023-07-20T05:44:28;93624.78;;;28.24;nan
23166;BME280;11751;42.700;24.170;2023-07-20T05:46:54;93615.50;;;28.61;nan
23166;BME280;11751;42.700;24.170;2023-07-20T05:49:19;93618.41;;;28.96;nan
23166;BME280;11751;42.700;24.170;2023-07-20T05:51:45;93616.53;;;29.13;nan
23166;BME280;11751;42.700;24.170;2023-07-20T05:54:11;93614.19;;;29.39;nan
23166;BME280;11751;42.700;24.170;2023-07-20T05:56:37;93604.53;;;29.65;nan
23166;BME280;11751;42.700;24.170;2023-07-20T05:59:02;93603.44;;;29.86;nan
23166;BME280;11751;42.700;24.170;2023-07-20T06:01:28;93607.03;;;29.85;nan
23166;BME280;11751;42.700;24.170;2023-07-20T06:03:53;93598.38;;;29.87;nan
23166;BME280;11751;42.700;24.170;2023-07-20T06:06:19;93603.72;;;30.02;nan
23166;BME280;11751;42.700;24.170;2023-07-20T06:08:44;93603.44;;;29.86;nan
23166;BME280;11751;42.700;24.170;2023-07-20T06:11:10;93609.03;;;29.74;nan
23166;BME280;11751;42.700;24.170;2023-07-20T06:13:35;93613.47;;;29.81;nan
23166;BME280;11751;42.700;24.170;2023-07-20T06:16:01;93619.97;;;29.82;nan
23166;BME280;11751;42.700;24.170;2023-07-20T06:18:26;93612.34;;;29.98;nan
23166;BME280;11751;42.700;24.170;2023-07-20T06:20:52;93616.66;;;29.97;nan
23166;BME280;11751;42.700;24.170;2023-07-20T06:23:21;93613.28;;;29.69;nan
23166;BME280;11751;42.700;24.170;2023-07-20T06:25:47;93621.81;;;29.63;nan
23166;BME280;11751;42.700;24.170;2023-07-20T06:28:13;93617.19;;;29.47;nan
23166;BME280;11751;42.700;24.170;2023-07-20T06:30:39;93615.91;;;29.55;nan
23166;BME280;11751;42.700;24.170;2023-07-20T06:33:04;93617.84;;;29.84;nan
23166;BME280;11751;42.700;24.170;2023-07-20T06:35:30;93623.34;;;29.68;nan
23166;BME280;11751;42.700;24.170;2023-07-20T06:37:56;93616.03;;;29.63;nan
23166;BME280;11751;42.700;24.170;2023-07-20T06:40:22;93614.75;;;29.72;nan
23166;BME280;11751;42.700;24.170;2023-07-20T06:42:48;93606.25;;;29.80;nan
23166;BME280;11751;42.700;24.170;2023-07-20T06:45:13;93610.78;;;29.93;nan
23166;BME280;11751;42.700;24.170;2023-07-20T06:47:39;93625.63;;;30.17;nan
23166;BME280;11751;42.700;24.170;2023-07-20T06:50:08;93612.28;;;29.96;nan
23166;BME280;11751;42.700;24.170;2023-07-20T06:52:35;93608.47;;;30.29;nan
23166;BME280;11751;42.700;24.170;2023-07-20T06:55:01;93611.28;;;30.25;nan
23166;BME280;11751;42.700;24.170;2023-07-20T06:57:26;93605.19;;;30.50;nan
23166;BME280;11751;42.700;24.170;2023-07-20T06:59:52;93613.09;;;30.50;nan
23166;BME280;11751;42.700;24.170;2023-07-20T07:02:18;93618.25;;;30.55;nan
23166;BME280;11751;42.700;24.170;2023-07-20T07:04:44;93607.63;;;30.72;nan
23166;BME280;11751;42.700;24.170;2023-07-20T07:07:10;93611.38;;;30.82;nan
23166;BME280;11751;42.700;24.170;2023-07-20T07:09:36;93615.19;;;30.97;nan
23166;BME280;11751;42.700;24.170;2023-07-20T07:12:01;93620.28;;;31.00;nan
23166;BME280;11751;42.700;24.170;2023-07-20T07:14:27;93616.88;;;31.16;nan
23166;BME280;11751;42.700;24.170;2023-07-20T07:16:52;93616.75;;;31.06;nan
23166;BME280;11751;42.700;24.170;2023-07-20T07:19:18;93614.47;;;30.98;nan
23166;BME280;11751;42.700;24.170;2023-07-20T07:21:43;93615.19;;;31.01;nan
23166;BME280;11751;42.700;24.170;2023-07-20T07:24:08;93609.97;;;31.48;nan
23166;BME280;11751;42.700;24.170;2023-07-20T07:26:36;93615.75;;;31.48;nan
23166;BME280;11751;42.700;24.170;2023-07-20T07:29:02;93620.41;;;31.75;nan
23166;BME280;11751;42.700;24.170;2023-07-20T07:31:29;93615.22;;;31.64;nan
23166;BME280;11751;42.700;24.170;2023-07-20T07:33:55;93614.63;;;31.79;nan
23166;BME280;11751;42.700;24.170;2023-07-20T07:36:20;93616.97;;;31.99;nan
23166;BME280;11751;42.700;24.170;2023-07-20T07:38:46;93628.22;;;31.61;nan
23166;BME280;11751;42.700;24.170;2023-07-20T07:41:11;93626.22;;;31.79;nan
23166;BME280;11751;42.700;24.170;2023-07-20T07:43:37;93618.41;;;31.98;nan
23166;BME280;11751;42.700;24.170;2023-07-20T07:46:04;93623.78;;;32.33;nan
23166;BME280;11751;42.700;24.170;2023-07-20T07:48:29;93625.09;;;32.14;nan
23166;BME280;11751;42.700;24.170;2023-07-20T07:50:54;93638.13;;;32.17;nan
23166;BME280;11751;42.700;24.170;2023-07-20T07:53:20;93638.31;;;32.39;nan
23166;BME280;11751;42.700;24.170;2023-07-20T07:55:47;93632.53;;;32.41;nan
23166;BME280;11751;42.700;24.170;2023-07-20T07:58:13;93642.84;;;32.64;nan
23166;BME280;11751;42.700;24.170;2023-07-20T08:00:39;93639.88;;;32.58;nan
23166;BME280;11751;42.700;24.170;2023-07-20T08:03:06;93634.25;;;32.82;nan
23166;BME280;11751;42.700;24.170;2023-07-20T08:05:32;93634.31;;;32.94;nan
23166;BME280;11751;42.700;24.170;2023-07-20T08:07:58;93630.81;;;33.29;nan
23166;BME280;11751;42.700;24.170;2023-07-20T08:10:23;93630.19;;;33.54;nan
23166;BME280;11751;42.700;24.170;2023-07-20T08:12:49;93628.78;;;33.67;nan
23166;BME280;11751;42.700;24.170;2023-07-20T08:15:14;93628.00;;;33.47;nan
23166;BME280;11751;42.700;24.170;2023-07-20T08:17:41;93628.81;;;33.71;nan
23166;BME280;11751;42.700;24.170;2023-07-20T08:20:08;93620.09;;;33.89;nan
23166;BME280;11751;42.700;24.170;2023-07-20T08:22:36;93617.22;;;33.99;nan
23166;BME280;11751;42.700;24.170;2023-07-20T08:25:02;93614.28;;;34.05;nan
23166;BME280;11751;42.700;24.170;2023-07-20T08:27:27;93622.25;;;33.63;nan
23166;BME280;11751;42.700;24.170;2023-07-20T08:29:52;93622.88;;;33.29;nan
23166;BME280;11751;42.700;24.170;2023-07-20T08:32:18;93614.28;;;33.81;nan
23166;BME280;11751;42.700;24.170;2023-07-20T08:34:43;93605.56;;;33.95;nan
23166;BME280;11751;42.700;24.170;2023-07-20T08:37:09;93595.41;;;33.76;nan
23166;BME280;11751;42.700;24.170;2023-07-20T08:39:35;93585.25;;;34.15;nan
23166;BME280;11751;42.700;24.170;2023-07-20T08:42:01;93582.31;;;34.03;nan
23166;BME280;11751;42.700;24.170;2023-07-20T08:44:29;93576.50;;;33.83;nan
23166;BME280;11751;42.700;24.170;2023-07-20T08:46:57;93571.44;;;33.96;nan
23166;BME280;11751;42.700;24.170;2023-07-20T08:49:23;93580.91;;;34.14;nan
23166;BME280;11751;42.700;24.170;2023-07-20T08:51:48;93580.88;;;34.26;nan
23166;BME280;11751;42.700;24.170;2023-07-20T08:54:15;93584.47;;;34.58;nan
23166;BME280;11751;42.700;24.170;2023-07-20T08:56:42;93596.16;;;34.36;nan
23166;BME280;11751;42.700;24.170;2023-07-20T08:59:09;93597.56;;;33.82;nan
23166;BME280;11751;42.700;24.170;2023-07-20T09:01:36;93596.78;;;33.41;nan
23166;BME280;11751;42.700;24.170;2023-07-20T09:04:03;93579.38;;;33.57;nan
23166;BME280;11751;42.700;24.170;2023-07-20T09:06:29;93585.22;;;33.69;nan
23166;BME280;11751;42.700;24.170;2023-07-20T09:08:55;93577.97;;;33.60;nan
23166;BME280;11751;42.700;24.170;2023-07-20T09:11:20;93567.78;;;33.75;nan
23166;BME280;11751;42.700;24.170;2023-07-20T09:13:46;93580.03;;;33.30;nan
23166;BME280;11751;42.700;24.170;2023-07-20T09:16:14;93563.38;;;33.46;nan
23166;BME280;11751;42.700;24.170;2023-07-20T09:18:40;93562.69;;;33.58;nan
23166;BME280;11751;42.700;24.170;2023-07-20T09:21:05;93545.28;;;34.25;nan
23166;BME280;11751;42.700;24.170;2023-07-20T09:23:38;93566.38;;;34.18;nan
23166;BME280;11751;42.700;24.170;2023-07-20T09:26:13;93576.53;;;34.23;nan
23166;BME280;11751;42.700;24.170;2023-07-20T09:28:47;93582.34;;;34.27;nan
23166;BME280;11751;42.700;24.170;2023-07-20T09:31:17;93586.53;;;33.13;nan
23166;BME280;11751;42.700;24.170;2023-07-20T09:33:44;93577.69;;;32.85;nan
23166;BME280;11751;42.700;24.170;2023-07-20T09:36:10;93574.78;;;32.87;nan
23166;BME280;11751;42.700;24.170;2023-07-20T09:38:41;93560.31;;;32.89;nan
23166;BME280;11751;42.700;24.170;2023-07-20T09:41:07;93566.09;;;32.81;nan
23166;BME280;11751;42.700;24.170;2023-07-20T09:43:34;93567.66;;;33.10;nan
23166;BME280;11751;42.700;24.170;2023-07-20T09:45:59;93561.94;;;33.45;nan
23166;BME280;11751;42.700;24.170;2023-07-20T09:48:25;93563.44;;;33.88;nan
23166;BME280;11751;42.700;24.170;2023-07-20T09:50:52;93562.66;;;33.38;nan
23166;BME280;11751;42.700;24.170;2023-07-20T09:53:19;93561.06;;;33.01;nan
23166;BME280;11751;42.700;24.170;2023-07-20T09:55:46;93558.88;;;32.92;nan
23166;BME280;11751;42.700;24.170;2023-07-20T09:58:13;93556.06;;;33.15;nan
23166;BME280;11751;42.700;24.170;2023-07-20T10:00:40;93558.31;;;33.43;nan
23166;BME280;11751;42.700;24.170;2023-07-20T10:03:06;93563.41;;;33.56;nan
23166;BME280;11751;42.700;24.170;2023-07-20T10:05:39;93565.63;;;33.78;nan
23166;BME280;11751;42.700;24.170;2023-07-20T10:08:11;93556.91;;;33.80;nan
23166;BME280;11751;42.700;24.170;2023-07-20T10:10:38;93557.63;;;33.98;nan
23166;BME280;11751;42.700;24.170;2023-07-20T10:13:05;93550.38;;;33.91;nan
23166;BME280;11751;42.700;24.170;2023-07-20T10:15:36;93557.63;;;34.26;nan
23166;BME280;11751;42.700;24.170;2023-07-20T10:18:18;93550.38;;;34.01;nan
23166;BME280;11751;42.700;24.170;2023-07-20T10:20:49;93551.81;;;33.98;nan
23166;BME280;11751;42.700;24.170;2023-07-20T10:23:17;93551.81;;;33.98;nan
23166;BME280;11751;42.700;24.170;2023-07-20T10:25:42;93546.75;;;34.20;nan
23166;BME280;11751;42.700;24.170;2023-07-20T10:28:10;93544.50;;;34.43;nan
23166;BME280;11751;42.700;24.170;2023-07-20T10:30:36;93534.22;;;34.82;nan
23166;BME280;11751;42.700;24.170;2023-07-20T10:33:05;93535.63;;;34.94;nan
23166;BME280;11751;42.700;24.170;2023-07-20T10:35:31;93534.25;;;34.78;nan
23166;BME280;11751;42.700;24.170;2023-07-20T10:38:15;93543.75;;;34.54;nan
23166;BME280;11751;42.700;24.170;2023-07-20T10:40:40;93532.84;;;34.53;nan
23166;BME280;11751;42.700;24.170;2023-07-20T10:43:07;93528.28;;;35.13;nan
23166;BME280;11751;42.700;24.170;2023-07-20T10:45:39;93518.69;;;35.37;nan
23166;BME280;11751;42.700;24.170;2023-07-20T10:48:12;93516.56;;;35.25;nan
23166;BME280;11751;42.700;24.170;2023-07-20T10:50:39;93527.56;;;35.13;nan
23166;BME280;11751;42.700;24.170;2023-07-20T10:53:13;93538.69;;;34.49;nan
23166;BME280;11751;42.700;24.170;2023-07-20T10:55:40;93543.06;;;34.32;nan
23166;BME280;11751;42.700;24.170;2023-07-20T10:58:12;93538.75;;;34.07;nan
23166;BME280;11751;42.700;24.170;2023-07-20T11:01:02;93530.00;;;34.03;nan
23166;BME280;11751;42.700;24.170;2023-07-20T11:03:33;93528.56;;;34.14;nan
23166;BME280;11751;42.700;24.170;2023-07-20T11:05:59;93522.03;;;34.09;nan
23166;BME280;11751;42.700;24.170;2023-07-20T11:08:41;93532.91;;;34.05;nan
23166;BME280;11751;42.700;24.170;2023-07-20T11:11:22;93535.84;;;33.73;nan
23166;BME280;11751;42.700;24.170;2023-07-20T11:16:43;93545.91;;;33.18;nan
23166;BME280;11751;42.700;24.170;2023-07-20T11:19:28;93548.84;;;33.44;nan
23166;BME280;11751;42.700;24.170;2023-07-20T11:21:56;93559.75;;;33.34;nan
23166;BME280;11751;42.700;24.170;2023-07-20T11:24:22;93556.00;;;33.06;nan
23166;BME280;11751;42.700;24.170;2023-07-20T11:26:52;93557.38;;;32.81;nan
23166;BME280;11751;42.700;24.170;2023-07-20T11:29:19;93547.31;;;33.04;nan
23166;BME280;11751;42.700;24.170;2023-07-20T11:31:46;93537.06;;;32.73;nan
23166;BME280;11751;42.700;24.170;2023-07-20T11:34:17;93541.41;;;32.80;nan
23166;BME280;11751;42.700;24.170;2023-07-20T11:36:44;93535.44;;;32.46;nan
23166;BME280;11751;42.700;24.170;2023-07-20T11:39:13;93518.16;;;32.64;nan
23166;BME280;11751;42.700;24.170;2023-07-20T11:41:38;93506.50;;;32.56;nan
23166;BME280;11751;42.700;24.170;2023-07-20T11:44:09;93497.06;;;32.49;nan
23166;BME280;11751;42.700;24.170;2023-07-20T11:46:39;93504.28;;;32.50;nan
23166;BME280;11751;42.700;24.170;2023-07-20T11:49:05;93510.66;;;32.15;nan
23166;BME280;11751;42.700;24.170;2023-07-20T11:51:31;93493.50;;;32.59;nan
23166;BME280;11751;42.700;24.170;2023-07-20T11:53:57;93491.28;;;32.57;nan
23166;BME280;11751;42.700;24.170;2023-07-20T11:56:24;93490.56;;;32.57;nan
23166;BME280;11751;42.700;24.170;2023-07-20T11:58:50;93489.09;;;32.56;nan
23166;BME280;11751;42.700;24.170;2023-07-20T12:01:17;93489.09;;;32.56;nan
23166;BME280;11751;42.700;24.170;2023-07-20T12:03:43;93489.09;;;32.52;nan
23166;BME280;11751;42.700;24.170;2023-07-20T12:06:09;93484.63;;;32.29;nan
23166;BME280;11751;42.700;24.170;2023-07-20T12:08:38;93486.16;;;32.46;nan
23166;BME280;11751;42.700;24.170;2023-07-20T12:11:04;93478.78;;;32.15;nan
23166;BME280;11751;42.700;24.170;2023-07-20T12:13:43;93482.97;;;31.94;nan
23166;BME280;11751;42.700;24.170;2023-07-20T12:16:14;93474.44;;;32.14;nan
23166;BME280;11751;42.700;24.170;2023-07-20T12:18:40;93466.00;;;32.72;nan
23166;BME280;11751;42.700;24.170;2023-07-20T12:21:06;93464.63;;;33.03;nan
23166;BME280;11751;42.700;24.170;2023-07-20T12:23:40;93471.94;;;33.47;nan
23166;BME280;11751;42.700;24.170;2023-07-20T12:26:09;93455.97;;;33.76;nan
23166;BME280;11751;42.700;24.170;2023-07-20T12:28:38;93462.47;;;34.14;nan
23166;BME280;11751;42.700;24.170;2023-07-20T12:31:05;93444.25;;;34.22;nan
23166;BME280;11751;42.700;24.170;2023-07-20T12:33:31;93436.94;;;34.39;nan
23166;BME280;11751;42.700;24.170;2023-07-20T12:35:57;93437.00;;;34.31;nan
23166;BME280;11751;42.700;24.170;2023-07-20T12:38:24;93433.19;;;34.72;nan
23166;BME280;11751;42.700;24.170;2023-07-20T12:40:50;93431.72;;;34.71;nan
23166;BME280;11751;42.700;24.170;2023-07-20T12:43:16;93436.78;;;34.79;nan
23166;BME280;11751;42.700;24.170;2023-07-20T12:45:42;93426.59;;;34.80;nan
23166;BME280;11751;42.700;24.170;2023-07-20T12:48:07;93427.97;;;34.91;nan
23166;BME280;11751;42.700;24.170;2023-07-20T12:50:33;93421.41;;;34.94;nan
23166;BME280;11751;42.700;24.170;2023-07-20T12:52:58;93423.72;;;34.74;nan
23166;BME280;11751;42.700;24.170;2023-07-20T12:55:23;93423.78;;;34.54;nan
23166;BME280;11751;42.700;24.170;2023-07-20T12:57:49;93407.81;;;34.59;nan
23166;BME280;11751;42.700;24.170;2023-07-20T13:00:15;93412.19;;;34.50;nan
23166;BME280;11751;42.700;24.170;2023-07-20T13:02:41;93410.78;;;34.41;nan
23166;BME280;11751;42.700;24.170;2023-07-20T13:05:07;93406.41;;;34.40;nan
23166;BME280;11751;42.700;24.170;2023-07-20T13:07:34;93410.81;;;34.29;nan
23166;BME280;11751;42.700;24.170;2023-07-20T13:10:01;93402.00;;;34.57;nan
23166;BME280;11751;42.700;24.170;2023-07-20T13:12:28;93399.09;;;34.49;nan
23166;BME280;11751;42.700;24.170;2023-07-20T13:14:55;93412.16;;;34.54;nan
23166;BME280;11751;42.700;24.170;2023-07-20T13:17:21;93410.13;;;34.24;nan
23166;BME280;11751;42.700;24.170;2023-07-20T13:19:47;93399.22;;;34.23;nan
23166;BME280;11751;42.700;24.170;2023-07-20T13:22:12;93405.06;;;34.15;nan